Terminal Aerodrome Forecast
Issued by NWS

Home | Current Version | Previous Version | Graphics & Text | Print | Product List | Glossary On
Versions: 1 2 3 4 5 6 7 8 9 10 11 12 13
000
FTUS45 KGGW 281015 AAA
TAFOLF
TAF AMD
KOLF 281015Z 2810/2906 06007KT P6SM SCT006
      TEMPO 2810/2813 4SM BR BKN006
     FM281500 05006KT P6SM BKN040
     FM282300 22005KT P6SM BKN080
     FM290100 14004KT P6SM SCT070=

USA.gov is the U.S. government's official web portal to all federal, state and local government web resources and services.